Terminal Aerodrome Forecast
Issued by NWS

Home | Current Version | Previous Version | Text Only | Print | Product List | Glossary On
Versions: 1 2 3 4 5 6 7 8 9 10 11 12 13 14 15
000
FTUS44 KSJT 181100 RRA
TAFJCT
TAF
KJCT 181146Z 1812/1912 VRB03KT 1SM BR OVC002
     FM181600 VRB03KT P6SM BKN008
     FM181700 VRB03KT P6SM SCT250
     FM190300 06006KT P6SM BKN012
     FM190500 06006KT 5SM BR VCSH BKN006=

USA.gov is the U.S. government's official web portal to all federal, state and local government web resources and services.